createdAt,value
2022-12-16T00:00:00.919Z,1005.70
2022-12-16T00:01:00.997Z,1005.73
2022-12-16T00:02:00.979Z,1005.74
2022-12-16T00:03:00.961Z,1005.71
2022-12-16T00:04:00.892Z,1005.68
2022-12-16T00:05:00.901Z,1005.69
2022-12-16T00:06:00.883Z,1005.69
2022-12-16T00:07:00.884Z,1005.68
2022-12-16T00:08:00.864Z,1005.69
2022-12-16T00:09:00.865Z,1005.71
2022-12-16T00:10:00.868Z,1005.72
2022-12-16T00:11:00.861Z,1005.75
2022-12-16T00:12:00.843Z,1005.76
2022-12-16T00:13:03.627Z,1005.76
2022-12-16T00:14:00.818Z,1005.73
2022-12-16T00:15:00.830Z,1005.70
2022-12-16T00:16:00.840Z,1005.75
2022-12-16T00:17:00.822Z,1005.72
2022-12-16T00:18:00.792Z,1005.70
2022-12-16T00:19:00.797Z,1005.66
2022-12-16T00:20:00.777Z,1005.70
2022-12-16T00:21:00.788Z,1005.64
2022-12-16T00:22:00.759Z,1005.68
2022-12-16T00:23:00.773Z,1005.71
2022-12-16T00:24:00.762Z,1005.72
2022-12-16T00:25:00.747Z,1005.69
2022-12-16T00:26:00.743Z,1005.70
2022-12-16T00:27:00.741Z,1005.65
2022-12-16T00:28:00.747Z,1005.62
2022-12-16T00:29:00.735Z,1005.63
2022-12-16T00:30:00.707Z,1005.66
2022-12-16T00:31:00.700Z,1005.67
2022-12-16T00:32:00.836Z,1005.72
2022-12-16T00:33:00.720Z,1005.70
2022-12-16T00:34:00.688Z,1005.71
2022-12-16T00:35:00.670Z,1005.75
2022-12-16T00:36:00.659Z,1005.70
2022-12-16T00:37:00.661Z,1005.71
2022-12-16T00:38:00.645Z,1005.68
2022-12-16T00:39:00.659Z,1005.68
2022-12-16T00:40:00.628Z,1005.66
2022-12-16T00:41:00.626Z,1005.66
2022-12-16T00:42:00.615Z,1005.68
2022-12-16T00:43:00.619Z,1005.70
2022-12-16T00:44:00.612Z,1005.64
2022-12-16T00:45:00.608Z,1005.62
2022-12-16T00:46:00.664Z,1005.64
2022-12-16T00:47:00.600Z,1005.66
2022-12-16T00:48:00.572Z,1005.64
2022-12-16T00:49:00.598Z,1005.67
2022-12-16T00:50:00.556Z,1005.68
2022-12-16T00:51:00.564Z,1005.65
2022-12-16T00:52:00.541Z,1005.67
2022-12-16T00:53:00.541Z,1005.60
2022-12-16T00:54:00.536Z,1005.61
2022-12-16T00:55:00.522Z,1005.56
2022-12-16T00:56:00.511Z,1005.61
2022-12-16T00:57:00.511Z,1005.59
2022-12-16T00:58:00.506Z,1005.57
2022-12-16T00:59:00.498Z,1005.62
2022-12-16T01:00:00.500Z,1005.58
2022-12-16T01:01:00.542Z,1005.60
2022-12-16T01:02:00.793Z,1005.64
2022-12-16T01:03:00.663Z,1005.66
2022-12-16T01:04:00.455Z,1005.71
2022-12-16T01:05:00.482Z,1005.67
2022-12-16T01:06:00.441Z,1005.70
2022-12-16T01:07:00.441Z,1005.69
2022-12-16T01:08:00.433Z,1005.68
2022-12-16T01:09:01.734Z,1005.68
2022-12-16T01:10:00.473Z,1005.68
2022-12-16T01:11:00.419Z,1005.68
2022-12-16T01:12:00.410Z,1005.68
2022-12-16T01:13:00.405Z,1005.67
2022-12-16T01:14:00.397Z,1005.67
2022-12-16T01:15:00.395Z,1005.69
2022-12-16T01:16:00.404Z,1005.68
2022-12-16T01:17:00.369Z,1005.69
2022-12-16T01:18:00.356Z,1005.72
2022-12-16T01:19:00.351Z,1005.73
2022-12-16T01:20:00.377Z,1005.71
2022-12-16T01:21:00.416Z,1005.74
2022-12-16T01:22:00.336Z,1005.73
2022-12-16T01:23:00.341Z,1005.68
2022-12-16T01:24:00.323Z,1005.72
2022-12-16T01:25:00.304Z,1005.72
2022-12-16T01:26:00.297Z,1005.69
2022-12-16T01:27:00.307Z,1005.75
2022-12-16T01:28:00.280Z,1005.72
2022-12-16T01:29:00.295Z,1005.76
2022-12-16T01:30:00.292Z,1005.77
2022-12-16T01:31:00.285Z,1005.79
2022-12-16T01:32:00.310Z,1005.78
2022-12-16T01:33:00.261Z,1005.79
2022-12-16T01:34:00.235Z,1005.83
2022-12-16T01:35:00.235Z,1005.78
2022-12-16T01:36:00.224Z,1005.80
2022-12-16T01:37:00.245Z,1005.84
2022-12-16T01:38:00.226Z,1005.84
2022-12-16T01:39:00.215Z,1005.87
2022-12-16T01:40:00.207Z,1005.86
2022-12-16T01:41:00.204Z,1005.89
2022-12-16T01:42:00.193Z,1005.91
2022-12-16T01:43:00.193Z,1005.87
2022-12-16T01:44:00.179Z,1005.92
2022-12-16T01:45:00.169Z,1005.92
2022-12-16T01:46:00.300Z,1005.95
2022-12-16T01:47:00.146Z,1005.95
2022-12-16T01:48:00.157Z,1005.96
2022-12-16T01:49:00.132Z,1006.04
2022-12-16T01:50:00.162Z,1006.02
2022-12-16T01:51:00.117Z,1005.99
2022-12-16T01:52:00.109Z,1005.99
2022-12-16T01:53:00.118Z,1006.02
2022-12-16T01:55:33.714Z,1006.04
2022-12-16T01:56:31.063Z,1006.02
2022-12-16T01:57:31.036Z,1006.01
2022-12-16T01:58:31.026Z,1006.06
2022-12-16T01:59:31.019Z,1006.03
2022-12-16T02:00:31.026Z,1006.05
2022-12-16T02:01:31.107Z,1006.05
2022-12-16T02:02:31.127Z,1006.10
2022-12-16T02:03:31.413Z,1006.10
2022-12-16T02:04:30.994Z,1006.05
2022-12-16T02:05:30.967Z,1006.08
2022-12-16T02:06:30.967Z,1006.05
2022-12-16T02:07:30.959Z,1006.05
2022-12-16T02:08:30.971Z,1006.04
2022-12-16T02:09:30.947Z,1006.03
2022-12-16T02:14:01.900Z,1006.07
2022-12-16T02:15:01.908Z,1006.07
2022-12-16T02:16:01.881Z,1006.04
2022-12-16T02:17:02.002Z,1006.04
2022-12-16T02:18:01.888Z,1006.01
2022-12-16T02:19:01.854Z,1006.03
2022-12-16T02:20:01.865Z,1006.00
2022-12-16T02:21:01.856Z,1006.02
2022-12-16T02:22:01.851Z,1006.04
2022-12-16T02:23:01.836Z,1006.06
2022-12-16T02:24:01.845Z,1006.09
2022-12-16T02:25:01.810Z,1006.11
2022-12-16T02:26:01.836Z,1006.11
2022-12-16T02:29:06.009Z,1006.10
2022-12-16T02:30:05.939Z,1006.11
2022-12-16T02:31:05.962Z,1006.11
2022-12-16T02:32:05.917Z,1006.09
2022-12-16T02:33:05.899Z,1006.14
2022-12-16T02:34:05.896Z,1006.11
2022-12-16T02:35:05.892Z,1006.13
2022-12-16T02:36:05.885Z,1006.14
2022-12-16T02:37:05.885Z,1006.17
2022-12-16T02:38:05.857Z,1006.17
2022-12-16T02:39:05.888Z,1006.16
2022-12-16T02:40:05.838Z,1006.15
2022-12-16T02:41:05.842Z,1006.14
2022-12-16T02:42:05.825Z,1006.15
2022-12-16T02:43:05.839Z,1006.14
2022-12-16T02:46:14.047Z,1006.15
2022-12-16T02:47:13.992Z,1006.14
2022-12-16T02:48:13.987Z,1006.16
2022-12-16T02:49:13.967Z,1006.15
2022-12-16T02:50:13.958Z,1006.16
2022-12-16T02:51:13.963Z,1006.15
2022-12-16T02:52:13.962Z,1006.13
2022-12-16T02:53:13.941Z,1006.09
2022-12-16T02:54:13.961Z,1006.09
2022-12-16T02:55:13.936Z,1006.11
2022-12-16T02:56:13.923Z,1006.15
2022-12-16T02:57:13.907Z,1006.18
2022-12-16T02:58:13.896Z,1006.22
2022-12-16T02:59:13.918Z,1006.17
2022-12-16T03:00:13.896Z,1006.16
2022-12-16T03:02:36.774Z,1006.16
2022-12-16T03:03:37.113Z,1006.17
2022-12-16T03:04:36.679Z,1006.15
2022-12-16T03:05:36.656Z,1006.14
2022-12-16T03:06:36.645Z,1006.14
2022-12-16T03:07:36.623Z,1006.17
2022-12-16T03:08:36.614Z,1006.15
2022-12-16T03:09:36.631Z,1006.18
2022-12-16T03:10:36.617Z,1006.23
2022-12-16T03:11:36.607Z,1006.23
2022-12-16T03:12:36.589Z,1006.20
2022-12-16T03:13:36.582Z,1006.26
2022-12-16T03:14:36.573Z,1006.21
2022-12-16T03:15:36.594Z,1006.28
2022-12-16T03:16:36.615Z,1006.25
2022-12-16T03:21:22.248Z,1006.27
2022-12-16T03:22:22.242Z,1006.21
2022-12-16T03:23:22.239Z,1006.26
2022-12-16T03:24:22.234Z,1006.27
2022-12-16T03:25:22.237Z,1006.27
2022-12-16T03:26:22.217Z,1006.29
2022-12-16T03:27:22.218Z,1006.31
2022-12-16T03:28:22.216Z,1006.29
2022-12-16T03:29:22.191Z,1006.36
2022-12-16T03:30:22.196Z,1006.30
2022-12-16T03:31:22.222Z,1006.35
2022-12-16T03:32:22.212Z,1006.33
2022-12-16T03:33:22.176Z,1006.27
2022-12-16T03:36:25.987Z,1006.34
2022-12-16T03:37:25.967Z,1006.38
2022-12-16T03:38:25.974Z,1006.33
2022-12-16T03:39:25.950Z,1006.37
2022-12-16T03:40:25.979Z,1006.38
2022-12-16T03:41:25.950Z,1006.36
2022-12-16T03:42:25.937Z,1006.37
2022-12-16T03:43:25.935Z,1006.39
2022-12-16T03:44:25.912Z,1006.37
2022-12-16T03:45:25.903Z,1006.39
2022-12-16T03:46:25.978Z,1006.34
2022-12-16T03:47:25.888Z,1006.37
2022-12-16T03:48:25.888Z,1006.33
2022-12-16T03:49:25.871Z,1006.30
2022-12-16T03:50:25.931Z,1006.32
2022-12-16T03:52:48.584Z,1006.28
2022-12-16T03:53:48.447Z,1006.31
2022-12-16T03:54:48.447Z,1006.30
2022-12-16T03:55:48.436Z,1006.34
2022-12-16T03:56:48.418Z,1006.35
2022-12-16T03:57:48.413Z,1006.37
2022-12-16T03:58:48.398Z,1006.36
2022-12-16T03:59:48.385Z,1006.39
2022-12-16T04:00:48.402Z,1006.35
2022-12-16T04:01:48.588Z,1006.36
2022-12-16T04:02:48.526Z,1006.38
2022-12-16T04:03:48.427Z,1006.35
2022-12-16T04:04:48.351Z,1006.36
2022-12-16T04:05:48.337Z,1006.35
2022-12-16T04:06:48.338Z,1006.36
2022-12-16T04:09:56.572Z,1006.40
2022-12-16T04:10:56.567Z,1006.36
2022-12-16T04:11:56.559Z,1006.40
2022-12-16T04:12:56.533Z,1006.38
2022-12-16T04:13:56.531Z,1006.34
2022-12-16T04:14:56.519Z,1006.34
2022-12-16T04:15:56.568Z,1006.33
2022-12-16T04:16:56.501Z,1006.34
2022-12-16T04:17:56.512Z,1006.31
2022-12-16T04:18:56.505Z,1006.33
2022-12-16T04:19:56.508Z,1006.33
2022-12-16T04:20:56.475Z,1006.38
2022-12-16T04:21:56.467Z,1006.39
2022-12-16T04:22:56.461Z,1006.40
2022-12-16T04:23:56.452Z,1006.46
2022-12-16T04:27:00.581Z,1006.48
2022-12-16T04:28:00.539Z,1006.47
2022-12-16T04:29:00.563Z,1006.41
2022-12-16T04:30:00.526Z,1006.48
2022-12-16T04:31:00.629Z,1006.42
2022-12-16T04:32:00.509Z,1006.45
2022-12-16T04:33:00.521Z,1006.44
2022-12-16T04:34:00.505Z,1006.46
2022-12-16T04:35:00.497Z,1006.45
2022-12-16T04:36:00.497Z,1006.46
2022-12-16T04:37:00.475Z,1006.50
2022-12-16T04:38:00.479Z,1006.50
2022-12-16T04:39:00.473Z,1006.55
2022-12-16T04:40:00.462Z,1006.53
2022-12-16T04:41:00.457Z,1006.53
2022-12-16T04:43:23.185Z,1006.60
2022-12-16T04:44:23.171Z,1006.58
2022-12-16T04:45:23.162Z,1006.65
2022-12-16T04:46:23.156Z,1006.63
2022-12-16T04:47:23.142Z,1006.65
2022-12-16T04:48:23.125Z,1006.63
2022-12-16T04:49:23.119Z,1006.67
2022-12-16T04:50:23.108Z,1006.65
2022-12-16T04:51:23.105Z,1006.63
2022-12-16T04:52:23.091Z,1006.64
2022-12-16T04:53:23.107Z,1006.63
2022-12-16T04:54:23.084Z,1006.62
2022-12-16T04:55:23.072Z,1006.65
2022-12-16T04:56:23.071Z,1006.68
2022-12-16T04:57:23.080Z,1006.67
2022-12-16T05:00:27.272Z,1006.74
2022-12-16T05:01:27.294Z,1006.75
2022-12-16T05:02:27.367Z,1006.76
2022-12-16T05:03:27.209Z,1006.77
2022-12-16T05:04:27.155Z,1006.78
2022-12-16T05:05:27.153Z,1006.80
2022-12-16T05:06:27.138Z,1006.79
2022-12-16T05:07:27.144Z,1006.79
2022-12-16T05:08:27.144Z,1006.87
2022-12-16T05:09:27.110Z,1006.82
2022-12-16T05:10:27.117Z,1006.85
2022-12-16T05:11:27.106Z,1006.88
2022-12-16T05:12:27.102Z,1006.88
2022-12-16T05:13:27.079Z,1006.86
2022-12-16T05:14:27.077Z,1006.87
2022-12-16T05:15:27.062Z,1006.87
2022-12-16T05:16:27.223Z,1006.88
2022-12-16T05:17:27.061Z,1006.91
2022-12-16T05:18:27.062Z,1006.92
2022-12-16T05:19:31.511Z,1006.92
2022-12-16T05:20:27.037Z,1006.94
2022-12-16T05:21:27.018Z,1006.90
2022-12-16T05:22:27.018Z,1006.94
2022-12-16T05:23:27.005Z,1006.95
2022-12-16T05:24:27.002Z,1006.91
2022-12-16T05:25:26.991Z,1006.93
2022-12-16T05:26:27.007Z,1006.94
2022-12-16T05:27:26.976Z,1006.94
2022-12-16T05:28:26.968Z,1006.92
2022-12-16T05:29:26.973Z,1006.96
2022-12-16T05:33:16.630Z,1007.02
2022-12-16T05:34:16.541Z,1007.03
2022-12-16T05:35:16.523Z,1007.03
2022-12-16T05:36:16.530Z,1007.07
2022-12-16T05:37:16.528Z,1007.08
2022-12-16T05:38:16.500Z,1007.04
2022-12-16T05:39:16.510Z,1007.08
2022-12-16T05:40:16.484Z,1007.05
2022-12-16T05:41:16.478Z,1007.08
2022-12-16T05:42:16.466Z,1007.09
2022-12-16T05:43:16.994Z,1007.10
2022-12-16T05:44:16.454Z,1007.09
2022-12-16T05:45:16.459Z,1007.18
2022-12-16T05:46:16.580Z,1007.16
2022-12-16T05:47:16.516Z,1007.18
2022-12-16T05:48:16.419Z,1007.23
2022-12-16T05:49:16.438Z,1007.25
2022-12-16T05:50:16.407Z,1007.31
2022-12-16T05:51:16.410Z,1007.32
2022-12-16T05:52:16.392Z,1007.36
2022-12-16T05:53:16.393Z,1007.37
2022-12-16T05:54:16.375Z,1007.36
2022-12-16T05:55:16.390Z,1007.35
2022-12-16T05:56:16.368Z,1007.33
2022-12-16T05:57:16.357Z,1007.35
2022-12-16T05:58:16.361Z,1007.33
2022-12-16T05:59:16.358Z,1007.33
2022-12-16T06:00:16.331Z,1007.37
2022-12-16T06:01:16.340Z,1007.36
2022-12-16T06:02:16.465Z,1007.39
2022-12-16T06:03:16.471Z,1007.40
2022-12-16T06:04:18.050Z,1007.43
2022-12-16T06:05:16.331Z,1007.44
2022-12-16T06:06:16.296Z,1007.43
2022-12-16T06:07:16.284Z,1007.44
2022-12-16T06:08:16.287Z,1007.42
2022-12-16T06:09:16.277Z,1007.46
2022-12-16T06:10:16.272Z,1007.46
2022-12-16T06:11:16.271Z,1007.51
2022-12-16T06:12:16.259Z,1007.52
2022-12-16T06:13:16.261Z,1007.52
2022-12-16T06:14:16.249Z,1007.55
2022-12-16T06:15:16.248Z,1007.51
2022-12-16T06:16:16.270Z,1007.52
2022-12-16T06:17:16.239Z,1007.54
2022-12-16T06:18:16.216Z,1007.57
2022-12-16T06:19:16.217Z,1007.59
2022-12-16T06:20:16.211Z,1007.61
2022-12-16T06:21:16.219Z,1007.65
2022-12-16T06:22:16.177Z,1007.63
2022-12-16T06:23:19.844Z,1007.65
2022-12-16T06:24:16.181Z,1007.66
2022-12-16T06:25:16.177Z,1007.70
2022-12-16T06:26:16.149Z,1007.71
2022-12-16T06:27:16.169Z,1007.73
2022-12-16T06:28:16.157Z,1007.72
2022-12-16T06:29:16.189Z,1007.74
2022-12-16T06:30:16.194Z,1007.76
2022-12-16T06:31:16.221Z,1007.80
2022-12-16T06:32:16.145Z,1007.81
2022-12-16T06:33:16.148Z,1007.86
2022-12-16T06:34:16.132Z,1007.84
2022-12-16T06:35:16.100Z,1007.90
2022-12-16T06:36:16.116Z,1007.89
2022-12-16T06:37:16.129Z,1007.94
2022-12-16T06:38:16.245Z,1007.98
2022-12-16T06:39:16.119Z,1008.00
2022-12-16T06:40:16.064Z,1008.02
2022-12-16T06:41:16.077Z,1008.04
2022-12-16T06:42:16.051Z,1008.03
2022-12-16T06:43:16.048Z,1008.01
2022-12-16T06:44:16.063Z,1008.03
2022-12-16T06:45:16.067Z,1008.08
2022-12-16T06:46:16.064Z,1008.11
2022-12-16T06:47:16.037Z,1008.06
2022-12-16T06:48:16.011Z,1008.07
2022-12-16T06:49:16.022Z,1008.06
2022-12-16T06:50:15.998Z,1008.06
2022-12-16T06:51:16.009Z,1008.08
2022-12-16T06:52:16.003Z,1008.13
2022-12-16T06:53:16.009Z,1008.09
2022-12-16T06:54:15.989Z,1008.18
2022-12-16T06:55:15.972Z,1008.15
2022-12-16T06:56:15.981Z,1008.17
2022-12-16T06:57:15.956Z,1008.27
2022-12-16T06:58:15.969Z,1008.29
2022-12-16T06:59:15.944Z,1008.30
2022-12-16T07:00:15.944Z,1008.30
2022-12-16T07:01:15.982Z,1008.29
2022-12-16T07:02:16.155Z,1008.30
2022-12-16T07:03:15.979Z,1008.27
2022-12-16T07:04:15.920Z,1008.31
2022-12-16T07:05:15.919Z,1008.32
2022-12-16T07:06:15.899Z,1008.35
2022-12-16T07:07:15.913Z,1008.34
2022-12-16T07:08:15.900Z,1008.38
2022-12-16T07:09:15.915Z,1008.43
2022-12-16T07:10:15.887Z,1008.45
2022-12-16T07:11:17.033Z,1008.51
2022-12-16T07:12:15.854Z,1008.50
2022-12-16T07:13:15.867Z,1008.55
2022-12-16T07:14:15.847Z,1008.56
2022-12-16T07:15:15.863Z,1008.59
2022-12-16T07:16:15.914Z,1008.63
2022-12-16T07:17:17.516Z,1008.65
2022-12-16T07:18:15.841Z,1008.69
2022-12-16T07:19:15.834Z,1008.72
2022-12-16T07:20:15.807Z,1008.75
2022-12-16T07:21:15.800Z,1008.76
2022-12-16T07:22:15.808Z,1008.79
2022-12-16T07:23:30.584Z,1008.78
2022-12-16T07:24:15.790Z,1008.78
2022-12-16T07:25:15.799Z,1008.80
2022-12-16T07:26:15.771Z,1008.83
2022-12-16T07:27:15.783Z,1008.87
2022-12-16T07:28:16.068Z,1008.83
2022-12-16T07:29:15.768Z,1008.83
2022-12-16T07:30:15.744Z,1008.79
2022-12-16T07:31:15.781Z,1008.83
2022-12-16T07:32:15.739Z,1008.83
2022-12-16T07:33:15.726Z,1008.88
2022-12-16T07:34:15.734Z,1008.90
2022-12-16T07:35:15.720Z,1008.98
2022-12-16T07:36:15.697Z,1008.98
2022-12-16T07:37:15.711Z,1009.01
2022-12-16T07:38:15.703Z,1009.02
2022-12-16T07:39:15.695Z,1009.07
2022-12-16T07:40:15.683Z,1009.11
2022-12-16T07:41:15.707Z,1009.07
2022-12-16T07:42:15.669Z,1009.10
2022-12-16T07:43:15.654Z,1009.11
2022-12-16T07:44:15.645Z,1009.07
2022-12-16T07:45:15.653Z,1009.09
2022-12-16T07:46:15.705Z,1009.10
2022-12-16T07:47:15.630Z,1009.13
2022-12-16T07:48:15.644Z,1009.21
2022-12-16T07:49:15.618Z,1009.23
2022-12-16T07:50:15.616Z,1009.23
2022-12-16T07:51:15.611Z,1009.27
2022-12-16T07:52:15.604Z,1009.26
2022-12-16T07:53:15.589Z,1009.25
2022-12-16T07:54:15.589Z,1009.25
2022-12-16T07:55:15.570Z,1009.23
2022-12-16T07:56:15.581Z,1009.23
2022-12-16T07:57:15.586Z,1009.26
2022-12-16T07:58:15.559Z,1009.28
2022-12-16T07:59:15.552Z,1009.29
2022-12-16T08:00:15.546Z,1009.30
2022-12-16T08:01:15.610Z,1009.32
2022-12-16T08:02:15.650Z,1009.36
2022-12-16T08:03:15.543Z,1009.33
2022-12-16T08:04:15.521Z,1009.33
2022-12-16T08:05:15.508Z,1009.30
2022-12-16T08:06:15.532Z,1009.33
2022-12-16T08:07:15.486Z,1009.32
2022-12-16T08:08:15.480Z,1009.36
2022-12-16T08:09:15.503Z,1009.37
2022-12-16T08:10:15.465Z,1009.34
2022-12-16T08:11:15.471Z,1009.37
2022-12-16T08:12:15.454Z,1009.35
2022-12-16T08:13:17.558Z,1009.37
2022-12-16T08:14:15.457Z,1009.37
2022-12-16T08:15:15.426Z,1009.38
2022-12-16T08:16:15.524Z,1009.40
2022-12-16T08:17:15.546Z,1009.43
2022-12-16T08:18:15.434Z,1009.47
2022-12-16T08:19:15.411Z,1009.48
2022-12-16T08:20:15.405Z,1009.48
2022-12-16T08:21:15.411Z,1009.48
2022-12-16T08:22:15.391Z,1009.50
2022-12-16T08:23:15.385Z,1009.52
2022-12-16T08:24:15.381Z,1009.48
2022-12-16T08:25:15.363Z,1009.53
2022-12-16T08:26:15.368Z,1009.58
2022-12-16T08:27:15.339Z,1009.56
2022-12-16T08:28:15.367Z,1009.51
2022-12-16T08:29:42.747Z,1009.49
2022-12-16T08:30:15.338Z,1009.51
2022-12-16T08:31:15.464Z,1009.56
2022-12-16T08:32:15.324Z,1009.57
2022-12-16T08:33:19.720Z,1009.55
2022-12-16T08:34:15.306Z,1009.56
2022-12-16T08:35:15.296Z,1009.58
2022-12-16T08:36:15.300Z,1009.63
2022-12-16T08:37:15.271Z,1009.63
2022-12-16T08:38:15.267Z,1009.65
2022-12-16T08:39:15.274Z,1009.64
2022-12-16T08:40:34.967Z,1009.65
2022-12-16T08:41:15.249Z,1009.65
2022-12-16T08:42:15.248Z,1009.66
2022-12-16T08:43:15.245Z,1009.67
2022-12-16T08:44:15.225Z,1009.68
2022-12-16T08:45:15.253Z,1009.70
2022-12-16T08:46:15.346Z,1009.67
2022-12-16T08:47:15.197Z,1009.67
2022-12-16T08:48:15.232Z,1009.66
2022-12-16T08:50:15.181Z,1009.68
2022-12-16T08:51:15.170Z,1009.69
2022-12-16T08:52:15.188Z,1009.69
2022-12-16T08:53:15.172Z,1009.71
2022-12-16T08:54:15.154Z,1009.74
2022-12-16T08:55:15.150Z,1009.73
2022-12-16T08:56:15.155Z,1009.77
2022-12-16T08:57:15.138Z,1009.78
2022-12-16T08:58:15.121Z,1009.82
2022-12-16T08:59:15.129Z,1009.83
2022-12-16T09:00:15.119Z,1009.85
2022-12-16T09:01:15.221Z,1009.89
2022-12-16T09:02:15.455Z,1009.83
2022-12-16T09:03:15.444Z,1009.86
2022-12-16T09:04:15.184Z,1009.91
2022-12-16T09:05:15.071Z,1009.91
2022-12-16T09:06:15.086Z,1009.90
2022-12-16T09:07:15.073Z,1009.93
2022-12-16T09:08:15.055Z,1009.95
2022-12-16T09:09:15.040Z,1009.96
2022-12-16T09:10:15.068Z,1009.95
2022-12-16T09:11:15.078Z,1009.96
2022-12-16T09:12:15.029Z,1010.02
2022-12-16T09:13:15.040Z,1010.01
2022-12-16T09:14:15.040Z,1009.99
2022-12-16T09:15:15.011Z,1009.98
2022-12-16T09:16:19.311Z,1010.04
2022-12-16T09:17:15.018Z,1010.03
2022-12-16T09:18:15.001Z,1010.04
2022-12-16T09:19:14.985Z,1010.01
2022-12-16T09:20:14.975Z,1010.03
2022-12-16T09:21:14.976Z,1009.98
2022-12-16T09:22:14.963Z,1010.00
2022-12-16T09:23:14.939Z,1010.03
2022-12-16T09:24:14.956Z,1010.00
2022-12-16T09:25:14.929Z,1010.03
2022-12-16T09:26:14.973Z,1010.02
2022-12-16T09:27:14.911Z,1010.07
2022-12-16T09:28:14.923Z,1010.09
2022-12-16T09:29:14.926Z,1010.10
2022-12-16T09:30:14.895Z,1010.09
2022-12-16T09:31:14.934Z,1010.12
2022-12-16T09:32:14.889Z,1010.20
2022-12-16T09:33:14.889Z,1010.22
2022-12-16T09:34:14.882Z,1010.19
2022-12-16T09:35:14.866Z,1010.17
2022-12-16T09:36:14.853Z,1010.17
2022-12-16T09:37:14.840Z,1010.22
2022-12-16T09:38:14.835Z,1010.21
2022-12-16T09:39:14.825Z,1010.19
2022-12-16T09:40:14.842Z,1010.20
2022-12-16T09:41:14.831Z,1010.19
2022-12-16T09:42:14.820Z,1010.24
2022-12-16T09:43:14.799Z,1010.25
2022-12-16T09:44:14.823Z,1010.30
2022-12-16T09:45:14.792Z,1010.29
2022-12-16T09:46:14.921Z,1010.30
2022-12-16T09:47:14.766Z,1010.28
2022-12-16T09:48:14.785Z,1010.31
2022-12-16T09:49:14.789Z,1010.31
2022-12-16T09:50:14.757Z,1010.35
2022-12-16T09:51:14.763Z,1010.33
2022-12-16T09:52:18.386Z,1010.32
2022-12-16T09:53:14.732Z,1010.34
2022-12-16T09:54:14.735Z,1010.32
2022-12-16T09:55:14.718Z,1010.33
2022-12-16T09:56:14.731Z,1010.34
2022-12-16T09:57:14.696Z,1010.35
2022-12-16T09:58:14.696Z,1010.37
2022-12-16T09:59:14.699Z,1010.36
2022-12-16T10:00:14.690Z,1010.39
2022-12-16T10:01:14.679Z,1010.40
2022-12-16T10:02:14.941Z,1010.41
2022-12-16T10:03:14.866Z,1010.46
2022-12-16T10:04:14.710Z,1010.50
2022-12-16T10:05:14.655Z,1010.46
2022-12-16T10:06:14.636Z,1010.53
2022-12-16T10:07:14.618Z,1010.55
2022-12-16T10:08:18.973Z,1010.53
2022-12-16T10:09:14.601Z,1010.55
2022-12-16T10:10:14.611Z,1010.60
2022-12-16T10:11:14.601Z,1010.62
2022-12-16T10:12:14.601Z,1010.61
2022-12-16T10:13:14.577Z,1010.60
2022-12-16T10:14:19.269Z,1010.61
2022-12-16T10:15:14.568Z,1010.62
2022-12-16T10:16:14.612Z,1010.66
2022-12-16T10:17:14.560Z,1010.65
2022-12-16T10:18:14.597Z,1010.63
2022-12-16T10:19:14.533Z,1010.63
2022-12-16T10:20:14.540Z,1010.63
2022-12-16T10:21:14.546Z,1010.66
2022-12-16T10:22:14.521Z,1010.60
2022-12-16T10:23:14.493Z,1010.62
2022-12-16T10:24:14.509Z,1010.61
2022-12-16T10:25:14.489Z,1010.61
2022-12-16T10:26:14.493Z,1010.63
2022-12-16T10:27:14.466Z,1010.64
2022-12-16T10:28:14.480Z,1010.64
2022-12-16T10:29:14.784Z,1010.65
2022-12-16T10:30:14.447Z,1010.65
2022-12-16T10:31:14.506Z,1010.64
2022-12-16T10:32:14.453Z,1010.66
2022-12-16T10:33:14.433Z,1010.66
2022-12-16T10:34:14.415Z,1010.65
2022-12-16T10:35:14.406Z,1010.67
2022-12-16T10:36:14.420Z,1010.71
2022-12-16T10:37:19.099Z,1010.66
2022-12-16T10:38:14.386Z,1010.72
2022-12-16T10:39:14.388Z,1010.69
2022-12-16T10:40:14.373Z,1010.73
2022-12-16T10:41:14.380Z,1010.73
2022-12-16T10:42:14.377Z,1010.71
2022-12-16T10:43:15.782Z,1010.72
2022-12-16T10:44:14.367Z,1010.76
2022-12-16T10:45:14.340Z,1010.76
2022-12-16T10:46:14.368Z,1010.74
2022-12-16T10:47:14.326Z,1010.74
2022-12-16T10:48:14.308Z,1010.73
2022-12-16T10:49:14.460Z,1010.74
2022-12-16T10:50:14.352Z,1010.75
2022-12-16T10:51:14.304Z,1010.75
2022-12-16T10:52:14.291Z,1010.71
2022-12-16T10:53:14.286Z,1010.73
2022-12-16T10:54:14.291Z,1010.69
2022-12-16T10:55:14.258Z,1010.70
2022-12-16T10:56:14.246Z,1010.67
2022-12-16T10:57:14.252Z,1010.68
2022-12-16T10:58:14.252Z,1010.67
2022-12-16T10:59:14.237Z,1010.64
2022-12-16T11:00:14.235Z,1010.70
2022-12-16T11:01:14.239Z,1010.70
2022-12-16T11:02:14.340Z,1010.69
2022-12-16T11:03:14.388Z,1010.68
2022-12-16T11:04:14.229Z,1010.73
2022-12-16T11:05:14.178Z,1010.70
2022-12-16T11:06:14.183Z,1010.70
2022-12-16T11:07:14.167Z,1010.75
2022-12-16T11:08:14.180Z,1010.74
2022-12-16T11:09:14.227Z,1010.71
2022-12-16T11:10:18.500Z,1010.77
2022-12-16T11:11:14.131Z,1010.73
2022-12-16T11:12:14.140Z,1010.75
2022-12-16T11:13:14.116Z,1010.75
2022-12-16T11:14:14.126Z,1010.76
2022-12-16T11:15:28.565Z,1010.77
2022-12-16T11:16:14.181Z,1010.79
2022-12-16T11:17:14.138Z,1010.79
2022-12-16T11:18:14.099Z,1010.80
2022-12-16T11:19:14.141Z,1010.77
2022-12-16T11:20:14.076Z,1010.79
2022-12-16T11:21:15.926Z,1010.81
2022-12-16T11:22:14.117Z,1010.77
2022-12-16T11:23:14.046Z,1010.80
2022-12-16T11:24:14.033Z,1010.81
2022-12-16T11:25:14.044Z,1010.81
2022-12-16T11:26:14.040Z,1010.77
2022-12-16T11:27:14.016Z,1010.80
2022-12-16T11:28:14.007Z,1010.76
2022-12-16T11:29:13.997Z,1010.81
2022-12-16T11:30:14.009Z,1010.82
2022-12-16T11:31:14.151Z,1010.80
2022-12-16T11:32:13.996Z,1010.82
2022-12-16T11:33:13.968Z,1010.81
2022-12-16T11:34:13.986Z,1010.79
2022-12-16T11:35:13.973Z,1010.79
2022-12-16T11:36:13.970Z,1010.79
2022-12-16T11:37:19.495Z,1010.80
2022-12-16T11:38:13.931Z,1010.79
2022-12-16T11:39:13.929Z,1010.77
2022-12-16T11:40:13.916Z,1010.78
2022-12-16T11:41:13.924Z,1010.77
2022-12-16T11:42:13.951Z,1010.80
2022-12-16T11:43:16.987Z,1010.82
2022-12-16T11:44:13.899Z,1010.75
2022-12-16T11:45:13.871Z,1010.77
2022-12-16T11:46:13.963Z,1010.77
2022-12-16T11:47:13.865Z,1010.75
2022-12-16T11:48:13.852Z,1010.73
2022-12-16T11:49:13.853Z,1010.76
2022-12-16T11:50:13.858Z,1010.73
2022-12-16T11:51:13.836Z,1010.76
2022-12-16T11:52:35.528Z,1010.76
2022-12-16T11:53:13.807Z,1010.81
2022-12-16T11:54:13.835Z,1010.77
2022-12-16T11:55:13.874Z,1010.79
2022-12-16T11:56:16.423Z,1010.81
2022-12-16T11:57:13.848Z,1010.79
2022-12-16T11:58:13.801Z,1010.82
2022-12-16T11:59:13.761Z,1010.86
2022-12-16T12:00:13.779Z,1010.92
2022-12-16T12:01:13.750Z,1010.94
2022-12-16T12:02:13.833Z,1010.94
2022-12-16T12:03:13.933Z,1010.87
2022-12-16T12:04:13.803Z,1010.89
2022-12-16T12:05:13.737Z,1010.88
2022-12-16T12:06:13.734Z,1010.91
2022-12-16T12:07:13.703Z,1010.92
2022-12-16T12:08:13.710Z,1010.91
2022-12-16T12:09:13.708Z,1010.94
2022-12-16T12:10:13.708Z,1010.93
2022-12-16T12:11:13.683Z,1010.92
2022-12-16T12:12:13.688Z,1010.91
2022-12-16T12:13:13.700Z,1010.96
2022-12-16T12:14:13.672Z,1010.96
2022-12-16T12:15:13.647Z,1010.95
2022-12-16T12:16:13.707Z,1010.98
2022-12-16T12:17:13.639Z,1010.96
2022-12-16T12:18:13.632Z,1011.01
2022-12-16T12:19:13.620Z,1010.96
2022-12-16T12:20:13.626Z,1010.97
2022-12-16T12:21:13.618Z,1010.94
2022-12-16T12:22:13.667Z,1010.96
2022-12-16T12:23:13.599Z,1011.00
2022-12-16T12:24:13.585Z,1011.02
2022-12-16T12:25:13.571Z,1011.01
2022-12-16T12:26:13.563Z,1011.04
2022-12-16T12:27:13.573Z,1011.02
2022-12-16T12:28:13.541Z,1011.00
2022-12-16T12:29:13.566Z,1011.03
2022-12-16T12:30:16.470Z,1011.02
2022-12-16T12:31:13.590Z,1010.96
2022-12-16T12:32:13.530Z,1011.01
2022-12-16T12:33:13.513Z,1011.02
2022-12-16T12:34:13.510Z,1011.02